Sheng Jia 1 — XUGG7 — position and weather

sailwx.info

Track history (hours):
 
Tides and Currents Weather Stations Pressure Air Temp Water Temp Dewpoint Dewpoint Depression Visibility Wind Speed Wind Dir Waves Ship Positions

Sheng Jia 1

Last reported at 2014-Sep-20 03:32 UTC. Time now 2014-Sep-20 09:59 UTC.
Position N 37°07' E 122°53'.

Length 73 m; draft 3.5 m.

Type: Cargo ship. MMSI: 515744000.

Date/timePositionNaut miles runAvg speedWind from/ knotsBaromVisibWave heightAir tempDewpointWater temp
2014-Sep-20 03:32N 37°07' E 122°53'8 8.4
2014-Sep-20 02:33N 36°58' E 122°54'364 8.5
2014-Sep-18 07:31N 30°55' E 122°32'6 6.3
2014-Sep-18 06:33N 30°52' E 122°26'6 5.6
2014-Sep-18 05:33N 30°49' E 122°21'6 5.7
2014-Sep-18 04:33N 30°44' E 122°17'7 7.3
2014-Sep-18 03:33N 30°37' E 122°14'8 7.8
2014-Sep-18 02:32N 30°31' E 122°09'9 8.9
2014-Sep-18 01:33N 30°27' E 121°60'16 8.1
2014-Sep-17 23:33N 30°13' E 121°49'12 9.7
2014-Sep-17 22:20N 30°01' E 121°48'3 0.1
2014-Sep-16 21:32N 29°60' E 121°47'2 1.3
2014-Sep-16 20:19N 30°01' E 121°46'0 0.0
2014-Sep-16 19:31N 30°01' E 121°46'0 0.0
2014-Sep-16 18:19N 30°01' E 121°46'0 0.0
2014-Sep-16 17:13N 30°01' E 121°46'0 0.0
2014-Sep-16 16:31N 30°01' E 121°46'0 0.1
2014-Sep-16 15:25N 30°01' E 121°46'0 0.0
2014-Sep-16 12:21N 30°01' E 121°46'0 0.0
2014-Sep-16 11:09N 30°01' E 121°46'0 0.0
2014-Sep-16 10:33N 30°01' E 121°46'0 0.1
2014-Sep-16 09:22N 30°01' E 121°46'0 0.0
2014-Sep-16 04:28N 30°01' E 121°46'0 0.0
2014-Sep-16 02:10N 30°01' E 121°46'0 0.0
2014-Sep-15 21:19N 30°01' E 121°46'0 0.0
2014-Sep-15 19:32N 30°01' E 121°46'0 0.0
2014-Sep-15 16:32N 30°01' E 121°46'0 0.1
2014-Sep-15 15:29N 30°01' E 121°46'0 0.0
2014-Sep-15 12:29N 30°01' E 121°46'0 0.0
2014-Sep-15 10:29N 30°01' E 121°46'0 0.0
2014-Sep-15 07:08N 30°01' E 121°46'0 0.0
2014-Sep-15 05:14N 30°01' E 121°46'0 0.0
2014-Sep-15 01:19N 30°01' E 121°46'8 8.3
2014-Sep-15 00:21N 30°09' E 121°49'4 2.0
2014-Sep-14 22:10N 30°13' E 121°50'0 0.0
2014-Sep-14 16:16N 30°13' E 121°50'0 0.0
2014-Sep-14 12:22N 30°13' E 121°50'0 0.0
2014-Sep-14 04:25N 30°13' E 121°50'0 0.0
2014-Sep-13 11:17N 30°13' E 121°50'0 0.0
2014-Sep-13 04:23N 30°13' E 121°50'0 0.0
2014-Sep-13 03:11N 30°13' E 121°50'0 0.0
2014-Sep-12 19:15N 30°13' E 121°50'0 0.0
2014-Sep-12 15:15N 30°13' E 121°50'0 0.1
2014-Sep-12 12:09N 30°13' E 121°50'0 0.0
2014-Sep-12 01:33N 30°13' E 121°50'0 0.1
2014-Sep-12 00:09N 30°13' E 121°50'0 0.0
2014-Sep-11 21:27N 30°13' E 121°50'0 0.1
2014-Sep-11 20:15N 30°13' E 121°50'0 0.0
2014-Sep-11 16:12N 30°13' E 121°50'0 0.0
2014-Sep-11 15:29N 30°13' E 121°50'3 3.3
2014-Sep-11 14:32N 30°16' E 121°48'23 7.8
2014-Sep-11 11:32N 30°32' E 122°08'7 6.7
2014-Sep-11 10:31N 30°34' E 122°16'5 5.1
2014-Sep-11 09:32N 30°32' E 122°21'4 4.5
2014-Sep-11 08:33N 30°32' E 122°26'7 6.8
2014-Sep-11 07:33N 30°34' E 122°34'8 7.9
2014-Sep-11 06:31N 30°38' E 122°43'9 8.5
2014-Sep-11 05:28N 30°42' E 122°52'8 8.6
2014-Sep-11 04:30N 30°46' E 123°00'8 8.2
2014-Sep-11 03:31N 30°50' E 123°08'9 9.2
2014-Sep-11 02:33N 30°53' E 123°18'11 9.5
2014-Sep-11 01:25N 30°57' E 123°30'  
Track history (hours):
 
Tides and Currents Weather Stations Pressure Air Temp Water Temp Dewpoint Dewpoint Depression Visibility Wind Speed Wind Dir Waves Ship Positions

Sheng Jia 1

Last reported at 2014-Sep-20 03:32 UTC. Time now 2014-Sep-20 09:59 UTC.
Position N 37°07' E 122°53'.

Length 73 m; draft 3.5 m.

Type: Cargo ship. MMSI: 515744000.

Date/timePositionNaut miles runAvg speedWind from/ knotsBaromVisibWave heightAir tempDewpointWater temp
2014-Sep-20 03:32N 37°07' E 122°53'8 8.4
2014-Sep-20 02:33N 36°58' E 122°54'364 8.5
2014-Sep-18 07:31N 30°55' E 122°32'6 6.3
2014-Sep-18 06:33N 30°52' E 122°26'6 5.6
2014-Sep-18 05:33N 30°49' E 122°21'6 5.7
2014-Sep-18 04:33N 30°44' E 122°17'7 7.3
2014-Sep-18 03:33N 30°37' E 122°14'8 7.8
2014-Sep-18 02:32N 30°31' E 122°09'9 8.9
2014-Sep-18 01:33N 30°27' E 121°60'16 8.1
2014-Sep-17 23:33N 30°13' E 121°49'12 9.7
2014-Sep-17 22:20N 30°01' E 121°48'3 0.1
2014-Sep-16 21:32N 29°60' E 121°47'2 1.3
2014-Sep-16 20:19N 30°01' E 121°46'0 0.0
2014-Sep-16 19:31N 30°01' E 121°46'0 0.0
2014-Sep-16 18:19N 30°01' E 121°46'0 0.0
2014-Sep-16 17:13N 30°01' E 121°46'0 0.0
2014-Sep-16 16:31N 30°01' E 121°46'0 0.1
2014-Sep-16 15:25N 30°01' E 121°46'0 0.0
2014-Sep-16 12:21N 30°01' E 121°46'0 0.0
2014-Sep-16 11:09N 30°01' E 121°46'0 0.0
2014-Sep-16 10:33N 30°01' E 121°46'0 0.1
2014-Sep-16 09:22N 30°01' E 121°46'0 0.0
2014-Sep-16 04:28N 30°01' E 121°46'0 0.0
2014-Sep-16 02:10N 30°01' E 121°46'0 0.0
2014-Sep-15 21:19N 30°01' E 121°46'0 0.0
2014-Sep-15 19:32N 30°01' E 121°46'0 0.0
2014-Sep-15 16:32N 30°01' E 121°46'0 0.1
2014-Sep-15 15:29N 30°01' E 121°46'0 0.0
2014-Sep-15 12:29N 30°01' E 121°46'0 0.0
2014-Sep-15 10:29N 30°01' E 121°46'0 0.0
2014-Sep-15 07:08N 30°01' E 121°46'0 0.0
2014-Sep-15 05:14N 30°01' E 121°46'0 0.0
2014-Sep-15 01:19N 30°01' E 121°46'8 8.3
2014-Sep-15 00:21N 30°09' E 121°49'4 2.0
2014-Sep-14 22:10N 30°13' E 121°50'0 0.0
2014-Sep-14 16:16N 30°13' E 121°50'0 0.0
2014-Sep-14 12:22N 30°13' E 121°50'0 0.0
2014-Sep-14 04:25N 30°13' E 121°50'0 0.0
2014-Sep-13 11:17N 30°13' E 121°50'0 0.0
2014-Sep-13 04:23N 30°13' E 121°50'0 0.0
2014-Sep-13 03:11N 30°13' E 121°50'0 0.0
2014-Sep-12 19:15N 30°13' E 121°50'0 0.0
2014-Sep-12 15:15N 30°13' E 121°50'0 0.1
2014-Sep-12 12:09N 30°13' E 121°50'0 0.0
2014-Sep-12 01:33N 30°13' E 121°50'0 0.1
2014-Sep-12 00:09N 30°13' E 121°50'0 0.0
2014-Sep-11 21:27N 30°13' E 121°50'0 0.1
2014-Sep-11 20:15N 30°13' E 121°50'0 0.0
2014-Sep-11 16:12N 30°13' E 121°50'0 0.0
2014-Sep-11 15:29N 30°13' E 121°50'3 3.3
2014-Sep-11 14:32N 30°16' E 121°48'23 7.8
2014-Sep-11 11:32N 30°32' E 122°08'7 6.7
2014-Sep-11 10:31N 30°34' E 122°16'5 5.1
2014-Sep-11 09:32N 30°32' E 122°21'4 4.5
2014-Sep-11 08:33N 30°32' E 122°26'7 6.8
2014-Sep-11 07:33N 30°34' E 122°34'8 7.9
2014-Sep-11 06:31N 30°38' E 122°43'9 8.5
2014-Sep-11 05:28N 30°42' E 122°52'8 8.6
2014-Sep-11 04:30N 30°46' E 123°00'8 8.2
2014-Sep-11 03:31N 30°50' E 123°08'9 9.2
2014-Sep-11 02:33N 30°53' E 123°18'11 9.5
2014-Sep-11 01:25N 30°57' E 123°30'  

Dump ship's entire track history